Time;durP1;ratioP1;P1;durP2;ratioP2;P2;SDS_P1;SDS_P2;PMS_P1;PMS_P2;Temp;Humidity;BMP_temperature;BMP_pressure;BME280_temperature;BME280_humidity;BME280_pressure;Samples;Min_cycle;Max_cycle;Signal;HPM_P1;HPM_P2
2022/07/03 00:02:07;;;;;;;8.30;3.35;;;18.20;99.90;;;;;;5076713;28;20486;-87
2022/07/03 00:04:32;;;;;;;7.95;3.17;;;18.20;99.90;;;;;;5058385;28;20076;-87
2022/07/03 00:06:58;;;;;;;7.60;3.10;;;18.10;99.90;;;;;;5076552;28;20036;-87
2022/07/03 00:09:24;;;;;;;7.72;3.20;;;18.00;99.90;;;;;;5075705;28;20059;-87
2022/07/03 00:11:50;;;;;;;8.07;3.10;;;18.10;99.90;;;;;;5075643;28;20033;-87
2022/07/03 00:14:19;;;;;;;8.50;3.10;;;17.90;99.90;;;;;;5075736;28;20052;-87
2022/07/03 00:16:45;;;;;;;9.05;3.47;;;17.90;99.90;;;;;;5076901;28;20100;-87
2022/07/03 00:19:11;;;;;;;8.68;3.28;;;17.90;99.90;;;;;;5074522;28;20532;-87
2022/07/03 00:21:53;;;;;;;8.52;3.53;;;17.90;99.90;;;;;;5075323;28;20076;-87
2022/07/03 00:24:26;;;;;;;8.52;3.40;;;17.70;99.90;;;;;;5074804;28;20541;-87
2022/07/03 00:26:53;;;;;;;9.77;3.60;;;17.70;99.90;;;;;;5076342;28;20044;-87
2022/07/03 00:29:26;;;;;;;7.20;3.22;;;17.90;99.90;;;;;;5076489;28;20052;-88
2022/07/03 00:31:52;;;;;;;7.47;3.13;;;17.60;99.90;;;;;;5075411;28;20120;-87
2022/07/03 00:34:18;;;;;;;8.13;3.25;;;18.20;99.90;;;;;;5075359;28;20072;-87
2022/07/03 00:36:47;;;;;;;8.68;3.00;;;17.70;99.90;;;;;;5074828;28;20045;-87
2022/07/03 00:39:14;;;;;;;8.30;3.10;;;18.20;99.90;;;;;;5078517;28;20127;-87
2022/07/03 00:41:46;;;;;;;8.15;3.38;;;17.60;99.90;;;;;;5116579;28;20486;-87
2022/07/03 00:44:12;;;;;;;8.85;3.35;;;17.50;99.90;;;;;;5098727;28;20498;-87
2022/07/03 00:46:41;;;;;;;9.35;3.20;;;17.80;99.90;;;;;;5116068;28;20040;-87
2022/07/03 00:49:09;;;;;;;8.00;3.47;;;17.50;99.90;;;;;;5098308;28;20039;-87
2022/07/03 00:51:40;;;;;;;9.68;3.42;;;17.60;99.90;;;;;;5116376;28;20035;-87
2022/07/03 00:54:08;;;;;;;8.15;3.40;;;17.50;99.90;;;;;;5097304;28;20119;-87
2022/07/03 00:56:38;;;;;;;7.57;3.33;;;17.60;99.90;;;;;;5115949;28;20043;-87
2022/07/03 00:59:03;;;;;;;8.07;3.53;;;17.60;99.90;;;;;;5096840;28;20068;-87
2022/07/03 01:01:32;;;;;;;8.57;3.70;;;17.50;99.90;;;;;;5097467;28;20071;-87
2022/07/03 01:04:03;;;;;;;9.15;3.80;;;17.50;99.90;;;;;;5097979;28;20088;-87
2022/07/03 01:06:40;;;;;;;10.57;3.65;;;17.50;99.90;;;;;;5115529;28;20057;-86
2022/07/03 01:09:06;;;;;;;12.05;3.97;;;17.60;99.90;;;;;;5116401;28;20043;-87
2022/07/03 01:11:43;;;;;;;10.77;4.85;;;17.70;99.90;;;;;;5098689;28;20451;-87
2022/07/03 01:14:18;;;;;;;15.38;7.35;;;17.40;99.90;;;;;;5127539;28;20047;-87
2022/07/03 01:17:31;;;;;;;11.05;5.45;;;17.40;99.90;;;;;;5116266;28;20040;-87
2022/07/03 01:20:07;;;;;;;12.60;5.95;;;17.30;99.90;;;;;;5107336;28;20061;-86
2022/07/03 01:22:43;;;;;;;9.80;4.15;;;17.30;99.90;;;;;;5118767;28;20054;-87
2022/07/03 01:25:22;;;;;;;10.10;3.92;;;17.20;99.90;;;;;;5097619;28;20503;-87
2022/07/03 01:27:54;;;;;;;11.65;3.97;;;17.20;99.90;;;;;;5096612;28;20578;-87
2022/07/03 01:30:22;;;;;;;10.05;4.15;;;17.10;99.90;;;;;;5098168;28;20052;-87
2022/07/03 01:32:56;;;;;;;9.70;4.22;;;17.10;99.90;;;;;;5098026;28;20118;-87
2022/07/03 01:35:28;;;;;;;9.63;4.15;;;17.00;99.90;;;;;;5114733;28;20039;-87
2022/07/03 01:37:55;;;;;;;8.32;4.07;;;17.00;99.90;;;;;;5115679;28;20040;-87
2022/07/03 01:40:23;;;;;;;8.88;3.95;;;17.00;99.90;;;;;;5115482;28;20134;-87
2022/07/03 01:42:49;;;;;;;8.18;3.90;;;17.00;99.90;;;;;;5096469;28;20062;-87
2022/07/03 01:45:19;;;;;;;8.95;4.03;;;17.00;99.90;;;;;;5097212;28;20043;-87
2022/07/03 01:47:46;;;;;;;10.30;4.47;;;17.00;99.90;;;;;;5097117;28;20437;-87
2022/07/03 01:50:14;;;;;;;11.35;4.70;;;17.00;99.90;;;;;;5096453;28;20043;-87
2022/07/03 01:52:44;;;;;;;13.02;4.75;;;17.00;99.90;;;;;;5133074;22;20075;-87
2022/07/03 01:55:33;;;;;;;11.00;4.35;;;17.20;99.90;;;;;;5073093;28;20087;-87
2022/07/03 01:58:17;;;;;;;9.43;4.18;;;17.70;99.90;;;;;;5072420;28;20052;-87
2022/07/03 02:01:08;;;;;;;8.88;4.15;;;16.80;99.90;;;;;;5073370;28;20064;-86
2022/07/03 02:03:35;;;;;;;8.18;4.03;;;16.80;99.90;;;;;;5073821;28;20131;-86
2022/07/03 02:06:43;;;;;;;10.48;4.55;;;17.00;99.90;;;;;;5073740;28;20045;-87
2022/07/03 02:09:13;;;;;;;9.52;4.60;;;16.60;99.90;;;;;;5063774;28;20055;-87
2022/07/03 02:11:55;;;;;;;10.05;4.30;;;16.50;99.90;;;;;;5073681;28;20044;-87
2022/07/03 02:14:49;;;;;;;12.95;4.85;;;16.40;99.90;;;;;;5072907;28;20040;-86
2022/07/03 02:17:21;;;;;;;10.43;4.63;;;16.90;99.90;;;;;;5073200;28;20051;-87
2022/07/03 02:20:07;;;;;;;9.23;4.50;;;16.30;99.90;;;;;;5073992;28;20041;-87
2022/07/03 02:22:56;;;;;;;11.80;4.55;;;16.20;99.90;;;;;;5082637;22;20067;-87
2022/07/03 02:25:25;;;;;;;13.60;4.35;;;16.10;99.90;;;;;;5093742;28;20051;-87
2022/07/03 02:28:14;;;;;;;8.35;4.30;;;16.60;99.90;;;;;;5075865;28;20043;-87
2022/07/03 02:33:11;;;;;;;11.68;4.35;;;15.80;99.90;;;;;;5118094;22;20097;-87
2022/07/03 02:35:52;;;;;;;9.68;4.53;;;16.70;99.90;;;;;;5096459;28;20040;-86
2022/07/03 02:38:20;;;;;;;9.30;4.50;;;15.70;99.90;;;;;;5093480;22;20067;-87
2022/07/03 02:40:57;;;;;;;10.63;4.50;;;15.60;99.90;;;;;;5073545;28;20098;-87
2022/07/03 02:43:46;;;;;;;10.32;5.13;;;15.60;99.90;;;;;;5107397;22;20062;-87
2022/07/03 02:49:23;;;;;;;10.18;4.35;;;15.40;99.90;;;;;;5095882;28;20047;-87
2022/07/03 02:52:02;;;;;;;8.73;4.53;;;15.40;99.90;;;;;;5114057;28;20043;-87
2022/07/03 02:54:32;;;;;;;8.65;4.55;;;15.30;99.90;;;;;;5114587;28;20039;-87
2022/07/03 02:57:08;;;;;;;10.10;4.72;;;15.20;99.90;;;;;;5114017;28;20059;-87
2022/07/03 02:59:54;;;;;;;10.05;4.60;;;15.30;99.90;;;;;;5113551;28;20062;-87
2022/07/03 03:02:36;;;;;;;9.75;5.13;;;15.10;99.90;;;;;;5095878;28;20047;-87
2022/07/03 03:05:09;;;;;;;8.80;4.95;;;15.10;99.90;;;;;;5119450;28;20039;-87
2022/07/03 03:07:45;;;;;;;11.68;5.07;;;15.00;99.90;;;;;;5116984;28;20048;-87
2022/07/03 03:10:14;;;;;;;9.73;4.85;;;15.00;99.90;;;;;;5114200;28;20039;-87
2022/07/03 03:12:44;;;;;;;10.15;5.05;;;15.60;99.90;;;;;;5113796;28;20429;-87
2022/07/03 03:15:12;;;;;;;11.18;5.43;;;14.90;99.90;;;;;;5095230;28;20044;-87
2022/07/03 03:17:50;;;;;;;11.43;5.90;;;14.90;99.90;;;;;;5113695;28;20051;-87
2022/07/03 03:20:18;;;;;;;10.13;5.30;;;14.90;99.90;;;;;;5112953;28;20127;-87
2022/07/03 03:25:15;;;;;;;10.63;5.05;;;14.80;99.90;;;;;;5070954;28;20060;-88
2022/07/03 03:27:59;;;;;;;9.90;5.90;;;14.80;99.90;;;;;;5054261;28;20110;-88
2022/07/03 03:30:31;;;;;;;9.68;5.57;;;15.00;99.90;;;;;;5073213;28;20052;-87
2022/07/03 03:33:09;;;;;;;9.50;5.55;;;15.10;99.90;;;;;;5063190;28;20044;-88
2022/07/03 03:35:36;;;;;;;10.35;5.40;;;15.60;99.90;;;;;;5055012;28;20439;-87
2022/07/03 03:38:20;;;;;;;10.13;5.53;;;15.30;99.90;;;;;;5165550;22;20051;-88
2022/07/03 03:40:52;;;;;;;11.43;5.95;;;14.70;99.90;;;;;;5074366;28;20048;-87
2022/07/03 03:43:37;;;;;;;9.48;5.80;;;15.50;99.90;;;;;;5074055;28;20044;-87
2022/07/03 03:50:20;;;;;;;9.40;5.70;;;14.80;99.90;;;;;;5091868;28;20066;-88
2022/07/03 03:53:04;;;;;;;11.73;5.97;;;15.40;99.90;;;;;;5074463;28;20488;-90
2022/07/03 03:56:10;;;;;;;9.75;5.55;;;15.10;99.90;;;;;;5073713;28;20092;-90
2022/07/03 03:59:17;;;;;;;10.93;5.78;;;14.90;99.90;;;;;;5085122;28;20048;-89
2022/07/03 04:02:21;;;;;;;10.50;6.28;;;14.90;99.90;;;;;;5094112;28;20126;-88
2022/07/03 04:05:02;;;;;;;11.27;6.38;;;15.00;99.90;;;;;;5034477;28;20123;-89
2022/07/03 04:07:40;;;;;;;14.18;7.63;;;15.10;99.90;;;;;;5075824;28;20319;-88
2022/07/03 04:10:21;;;;;;;11.82;8.38;;;16.00;99.90;;;;;;5111547;28;20036;-89
2022/07/03 04:13:06;;;;;;;14.90;8.82;;;15.40;99.90;;;;;;5093922;28;20051;-89
2022/07/03 04:15:44;;;;;;;12.55;8.32;;;15.50;99.90;;;;;;5095295;28;20200;-88
2022/07/03 04:18:50;;;;;;;12.93;8.43;;;16.80;99.90;;;;;;5104180;28;20096;-88
2022/07/03 04:21:51;;;;;;;14.85;8.18;;;15.80;99.90;;;;;;5075601;28;20109;-93
2022/07/03 04:24:20;;;;;;;12.30;7.55;;;16.20;99.90;;;;;;5359987;22;20120;-92
2022/07/03 04:26:46;;;;;;;12.10;7.70;;;16.30;99.90;;;;;;5117267;28;20088;-92
2022/07/03 04:29:12;;;;;;;12.43;7.55;;;16.30;99.90;;;;;;5092428;28;20040;-92
2022/07/03 04:31:37;;;;;;;12.38;7.20;;;16.50;99.90;;;;;;5080434;28;20510;-92
2022/07/03 04:34:03;;;;;;;11.68;7.18;;;16.60;99.90;;;;;;5094793;28;20081;-93
2022/07/03 04:36:28;;;;;;;12.93;7.93;;;16.80;99.90;;;;;;5079633;28;20043;-93
2022/07/03 04:38:54;;;;;;;13.68;7.00;;;17.30;99.90;;;;;;5079096;28;20043;-93
2022/07/03 04:41:20;;;;;;;14.55;6.80;;;16.90;99.90;;;;;;5097383;28;20044;-92
2022/07/03 04:43:45;;;;;;;11.18;6.47;;;17.40;99.90;;;;;;5096593;28;20043;-92
2022/07/03 04:46:11;;;;;;;10.90;6.35;;;17.00;99.90;;;;;;5078507;28;20082;-91
2022/07/03 04:48:37;;;;;;;13.35;6.35;;;17.10;99.90;;;;;;5079755;28;20047;-91
2022/07/03 04:51:02;;;;;;;11.57;6.28;;;17.10;99.90;;;;;;5096144;28;20044;-91
2022/07/03 04:54:14;;;;;;;11.30;5.53;;;17.40;99.90;;;;;;5152011;22;20507;-90
2022/07/03 04:57:05;;;;;;;11.65;5.75;;;17.20;99.90;;;;;;5090374;28;20046;-91
2022/07/03 05:00:04;;;;;;;11.48;5.60;;;17.20;99.90;;;;;;5077434;28;20039;-92
2022/07/03 05:02:45;;;;;;;11.10;6.10;;;17.80;99.90;;;;;;5077863;28;20483;-92
2022/07/03 05:05:29;;;;;;;10.32;6.10;;;18.20;99.90;;;;;;5077737;28;20044;-91
2022/07/03 05:13:04;;;;;;;13.98;6.63;;;17.20;99.90;;;;;;4994113;28;20053;-90
2022/07/03 05:15:19;;;;;;;12.75;6.45;;;17.00;99.90;;;;;;4907510;28;20063;-88
2022/07/03 05:18:00;;;;;;;10.40;5.90;;;17.00;99.90;;;;;;4993436;28;20537;-88
2022/07/03 05:21:06;;;;;;;11.45;6.43;;;17.20;99.90;;;;;;4976177;28;20490;-90
2022/07/03 05:24:21;;;;;;;12.40;6.65;;;16.70;99.90;;;;;;5266482;22;20143;-90
2022/07/03 05:27:01;;;;;;;11.18;6.28;;;16.70;99.90;;;;;;5051901;28;20053;-89
2022/07/03 05:29:42;;;;;;;11.85;6.68;;;16.60;99.90;;;;;;5037278;28;20128;-91
2022/07/03 05:35:59;;;;;;;;;;;;;;;;;;;;;
2022/07/03 05:39:39;;;;;;;11.45;6.93;;;16.50;99.90;;;;;;4971100;28;20113;-90
2022/07/03 05:46:07;;;;;;;11.40;6.75;;;16.50;99.90;;;;;;4971765;28;20086;-94
2022/07/03 05:52:57;;;;;;;11.27;6.80;;;16.60;99.90;;;;;;5459291;22;20146;-88
2022/07/03 06:00:14;;;;;;;11.43;6.70;;;16.80;99.90;;;;;;5096096;28;20038;-90
2022/07/03 06:14:54;;;;;;;12.10;4.63;;;17.80;99.90;;;;;;5038838;28;20049;-94
2022/07/03 06:17:54;;;;;;;10.68;4.40;;;18.10;99.90;;;;;;5008048;28;20595;-92
2022/07/03 06:21:14;;;;;;;9.48;3.63;;;18.30;99.90;;;;;;5020300;28;20485;-94
2022/07/03 06:31:10;;;;;;;8.52;2.50;;;19.40;99.90;;;;;;4975761;28;20051;-94
2022/07/03 06:34:28;;;;;;;9.02;3.13;;;18.80;99.90;;;;;;4960224;28;20059;-95
2022/07/03 06:43:54;;;;;;;7.25;2.70;;;19.30;99.90;;;;;;5076121;28;20529;-95
2022/07/03 06:46:45;;;;;;;6.55;2.40;;;19.20;99.90;;;;;;5058250;28;20036;-95
2022/07/03 06:52:58;;;;;;;6.75;2.20;;;20.10;99.90;;;;;;5076356;28;20074;-94
2022/07/03 07:07:21;;;;;;;7.82;2.30;;;20.00;99.90;;;;;;5100763;28;20043;-94
2022/07/03 07:12:35;;;;;;;6.38;2.10;;;20.60;99.90;;;;;;5518818;22;20072;-95
2022/07/03 07:18:29;;;;;;;7.22;1.90;;;21.00;99.90;;;;;;5299460;22;20072;-96
2022/07/03 07:29:15;;;;;;;;;;;;;;;;;;;;;
2022/07/03 07:39:58;;;;;;;7.47;2.08;;;21.90;99.90;;;;;;5101139;28;20093;-95
2022/07/03 07:43:24;;;;;;;7.05;2.00;;;22.00;99.90;;;;;;5100387;28;20467;-95
2022/07/03 07:46:05;;;;;;;6.97;2.70;;;21.90;99.90;;;;;;5001697;28;20042;-95
2022/07/03 07:51:46;;;;;;;7.15;2.30;;;21.70;99.90;;;;;;5432518;22;20063;-94
2022/07/03 07:54:46;;;;;;;9.20;2.35;;;21.60;99.90;;;;;;5088766;28;20437;-94
2022/07/03 08:12:11;;;;;;;7.93;2.67;;;21.30;99.90;;;;;;5290710;22;20055;-95
2022/07/03 08:36:52;;;;;;;7.53;2.30;;;22.50;99.90;;;;;;5586122;22;20068;-96
2022/07/03 09:12:41;;;;;;;7.82;2.70;;;23.30;99.90;;;;;;5418448;22;20142;-96
2022/07/03 09:24:39;;;;;;;8.15;3.45;;;23.50;99.90;;;;;;5071313;28;20064;-94
2022/07/03 09:38:17;;;;;;;7.57;2.88;;;23.70;99.90;;;;;;5353184;22;20078;-96
2022/07/03 09:59:07;;;;;;;8.68;2.55;;;23.60;99.90;;;;;;5037911;28;20040;-96
2022/07/03 10:02:13;;;;;;;8.23;2.22;;;23.40;99.90;;;;;;5039585;28;20171;-96
2022/07/03 11:57:36;;;;;;;4.38;1.50;;;26.40;92.20;;;;;;5376532;22;20014;-96
2022/07/03 13:05:56;;;;;;;5.97;1.55;;;25.80;91.00;;;;;;5110907;28;20076;-95
2022/07/03 13:09:02;;;;;;;5.65;1.75;;;26.20;91.10;;;;;;5093415;28;20064;-94
2022/07/03 13:22:25;;;;;;;5.53;1.50;;;27.60;91.10;;;;;;5101166;28;20050;-95
2022/07/03 14:00:15;;;;;;;3.72;1.50;;;25.20;90.80;;;;;;5115197;28;20123;-93
2022/07/03 14:03:10;;;;;;;8.05;1.70;;;24.70;91.80;;;;;;5103856;28;20051;-95
2022/07/03 14:05:57;;;;;;;11.57;1.98;;;22.90;97.80;;;;;;5100748;28;20036;-95
2022/07/03 14:15:29;;;;;;;4.80;1.60;;;17.40;99.90;;;;;;5077126;28;20135;-94
2022/07/03 14:18:13;;;;;;;7.32;2.20;;;16.80;99.90;;;;;;4996867;28;20058;-95
2022/07/03 14:21:00;;;;;;;7.78;2.60;;;16.70;99.90;;;;;;4997400;28;20065;-95
2022/07/03 14:23:26;;;;;;;9.75;3.00;;;16.80;99.90;;;;;;4996269;28;20073;-95
2022/07/03 14:32:28;;;;;;;7.72;2.78;;;16.90;99.90;;;;;;4996492;28;20050;-94
2022/07/03 14:40:16;;;;;;;8.88;3.47;;;19.40;99.90;;;;;;5073858;28;20068;-95
2022/07/03 14:42:57;;;;;;;7.82;2.80;;;19.80;99.90;;;;;;5056167;28;20048;-95
2022/07/03 14:45:38;;;;;;;7.53;2.70;;;20.10;99.90;;;;;;5060112;28;20136;-96
2022/07/03 14:48:26;;;;;;;6.93;2.50;;;20.40;99.90;;;;;;5061730;28;20439;-96
2022/07/03 14:51:01;;;;;;;7.18;2.40;;;20.10;99.90;;;;;;5067668;28;20059;-96
2022/07/03 14:53:52;;;;;;;7.20;2.40;;;20.00;99.90;;;;;;5290604;22;20099;-96
2022/07/03 14:57:08;;;;;;;6.78;2.40;;;20.20;99.90;;;;;;5094119;28;20047;-96
2022/07/03 14:59:37;;;;;;;7.97;2.53;;;20.20;99.90;;;;;;5085611;28;20059;-96
2022/07/03 15:06:12;;;;;;;7.18;2.25;;;20.60;99.90;;;;;;5092217;28;20047;-96
2022/07/03 15:09:22;;;;;;;5.43;2.00;;;21.00;99.90;;;;;;5085350;28;20208;-96
2022/07/03 15:12:35;;;;;;;6.85;2.20;;;21.40;99.90;;;;;;5085794;28;20047;-96
2022/07/03 15:15:23;;;;;;;5.93;1.92;;;21.60;99.90;;;;;;5080577;28;20044;-96
2022/07/03 15:17:51;;;;;;;5.10;1.83;;;22.50;99.90;;;;;;5078826;22;20052;-96
2022/07/03 15:20:19;;;;;;;4.97;1.80;;;22.00;99.90;;;;;;5075810;28;20510;-96
2022/07/03 15:22:46;;;;;;;5.00;1.70;;;22.10;99.90;;;;;;5076377;28;20059;-96
2022/07/03 15:25:13;;;;;;;5.80;1.90;;;22.20;99.90;;;;;;5074976;28;20124;-96
2022/07/03 15:27:39;;;;;;;4.65;1.70;;;22.10;99.90;;;;;;5060112;28;20041;-96
2022/07/03 15:30:08;;;;;;;5.78;2.00;;;21.70;99.90;;;;;;5078394;28;20047;-96
2022/07/03 15:32:34;;;;;;;5.60;1.98;;;21.60;99.90;;;;;;5076610;28;20040;-96
2022/07/03 15:35:00;;;;;;;5.95;2.03;;;21.60;99.90;;;;;;5059593;28;20297;-96
2022/07/03 15:37:35;;;;;;;6.05;2.22;;;21.50;99.90;;;;;;5078510;28;20047;-96
2022/07/03 15:40:04;;;;;;;6.40;2.00;;;20.70;99.90;;;;;;5060369;28;20059;-96
2022/07/03 15:42:32;;;;;;;6.30;2.10;;;20.80;99.90;;;;;;5077522;28;20055;-96
2022/07/03 15:45:30;;;;;;;5.32;1.92;;;20.50;99.90;;;;;;5060313;28;20132;-95
2022/07/03 15:48:27;;;;;;;6.53;2.33;;;20.40;99.90;;;;;;5040800;28;20048;-95
2022/07/03 15:51:14;;;;;;;6.35;2.40;;;20.40;99.90;;;;;;5079480;28;20048;-96
2022/07/03 15:53:44;;;;;;;6.25;2.33;;;20.30;99.90;;;;;;5077164;28;20174;-96
2022/07/03 15:56:13;;;;;;;8.52;2.30;;;20.50;99.90;;;;;;5059632;28;20044;-96
2022/07/03 15:58:44;;;;;;;8.40;2.47;;;20.80;99.90;;;;;;5059638;28;20503;-96
2022/07/03 16:04:08;;;;;;;8.70;2.42;;;21.50;99.90;;;;;;5059713;28;20235;-96
2022/07/03 16:06:38;;;;;;;7.65;2.10;;;21.70;99.90;;;;;;5061267;28;20059;-96
2022/07/03 16:09:04;;;;;;;5.78;2.20;;;21.50;99.90;;;;;;5078193;28;20037;-96
2022/07/03 16:11:30;;;;;;;7.25;2.38;;;21.70;99.90;;;;;;5059075;28;20403;-96
2022/07/03 16:14:01;;;;;;;7.90;2.42;;;21.60;99.90;;;;;;5058846;28;20049;-95
2022/07/03 16:16:44;;;;;;;8.02;2.30;;;21.40;99.90;;;;;;5030045;28;20044;-96
2022/07/03 16:19:49;;;;;;;7.18;1.98;;;20.80;99.90;;;;;;5040830;28;20044;-96
2022/07/03 16:23:07;;;;;;;7.05;2.20;;;20.60;99.90;;;;;;5056883;28;20045;-96
2022/07/03 16:26:03;;;;;;;5.85;1.83;;;20.40;99.90;;;;;;5056788;28;20444;-95
2022/07/03 16:29:09;;;;;;;5.57;1.83;;;20.60;99.90;;;;;;5054153;28;20036;-96
2022/07/03 16:35:43;;;;;;;6.35;1.95;;;21.30;99.90;;;;;;5058991;28;20067;-96
2022/07/03 17:11:26;;;;;;;5.47;1.80;;;20.10;99.90;;;;;;5155382;22;20605;-90
2022/07/03 17:29:25;;;;;;;;;;;;;;;;;;;;;
2022/07/03 17:42:48;;;;;;;4.13;1.60;;;23.10;99.90;;;;;;4971916;28;20061;-89
2022/07/03 17:45:24;;;;;;;5.05;1.88;;;22.10;99.90;;;;;;4955464;28;20380;-89
2022/07/03 17:55:43;;;;;;;;;;;;;;;;;;;;;
2022/07/03 18:06:38;;;;;;;;;;;;;;;;;;;;;
2022/07/03 19:05:14;;;;;;;5.93;2.00;;;21.00;99.90;;;;;;5078761;22;20044;-91
2022/07/03 19:22:26;;;;;;;6.38;2.00;;;19.00;99.90;;;;;;5030103;28;20350;-91
2022/07/03 19:29:32;;;;;;;6.88;2.30;;;18.60;99.90;;;;;;5029740;28;20504;-90
2022/07/03 19:37:25;;;;;;;;;;;;;;;;;;;;;
2022/07/03 20:28:45;;;;;;;7.25;2.50;;;17.10;99.90;;;;;;5186575;22;20044;-83
2022/07/03 20:31:11;;;;;;;9.75;2.67;;;17.20;99.90;;;;;;5057702;28;20123;-84
2022/07/03 20:33:36;;;;;;;7.95;2.60;;;17.10;99.90;;;;;;5057255;28;20412;-84
2022/07/03 20:38:56;;;;;;;8.90;2.85;;;17.00;99.90;;;;;;5134219;22;20492;-84
2022/07/03 20:45:58;;;;;;;9.13;3.35;;;17.00;99.90;;;;;;5074754;28;20085;-84
2022/07/03 20:48:42;;;;;;;9.25;3.30;;;16.90;99.90;;;;;;5074453;28;20052;-84
2022/07/03 20:51:29;;;;;;;9.00;3.15;;;16.80;99.90;;;;;;5075012;28;20041;-83
2022/07/03 20:54:14;;;;;;;8.73;3.47;;;16.70;99.90;;;;;;5056470;28;20036;-83
2022/07/03 20:57:21;;;;;;;8.27;3.08;;;16.70;99.90;;;;;;5056128;28;20040;-83
2022/07/03 21:14:37;;;;;;;8.55;3.38;;;16.30;99.90;;;;;;5331140;22;20057;-83
2022/07/03 21:17:06;;;;;;;9.07;3.50;;;16.20;99.90;;;;;;5009194;28;20045;-83
2022/07/03 21:24:02;;;;;;;8.77;3.33;;;16.10;99.90;;;;;;5012049;28;20061;-83
2022/07/03 21:26:34;;;;;;;10.82;3.70;;;16.10;99.90;;;;;;4935975;29;20059;-84
2022/07/03 21:35:18;;;;;;;10.05;3.47;;;15.90;99.90;;;;;;5158752;22;20049;-87
2022/07/03 21:37:49;;;;;;;8.05;3.25;;;15.70;99.90;;;;;;4981518;28;20409;-86
2022/07/03 21:43:11;;;;;;;;;;;;;;;;;;;;;
2022/07/03 21:45:55;;;;;;;10.43;3.85;;;16.00;99.90;;;;;;5578570;22;20085;-85
2022/07/03 21:48:22;;;;;;;10.07;3.75;;;15.60;99.90;;;;;;5094368;28;20048;-86
2022/07/03 21:50:48;;;;;;;12.70;4.07;;;15.50;99.90;;;;;;5353435;22;20477;-86
2022/07/03 21:53:14;;;;;;;8.10;3.42;;;15.80;99.90;;;;;;5094130;28;20399;-86
2022/07/03 21:55:43;;;;;;;8.80;3.53;;;15.50;99.90;;;;;;5094321;28;20036;-86
2022/07/03 21:58:08;;;;;;;7.75;3.47;;;15.40;99.90;;;;;;5094455;28;20040;-86
2022/07/03 22:00:35;;;;;;;9.55;3.63;;;15.40;99.90;;;;;;5093593;28;20048;-86
2022/07/03 22:03:01;;;;;;;9.85;4.00;;;15.40;99.90;;;;;;5093990;28;20559;-86
2022/07/03 22:05:28;;;;;;;9.40;3.80;;;15.80;99.90;;;;;;5093992;28;20111;-85
2022/07/03 22:07:53;;;;;;;9.07;3.85;;;15.30;99.90;;;;;;5075947;28;20055;-85
2022/07/03 22:10:19;;;;;;;10.57;4.13;;;15.70;99.90;;;;;;5094381;28;20052;-86
2022/07/03 22:12:46;;;;;;;8.63;3.97;;;15.50;99.90;;;;;;5092925;28;20032;-86
2022/07/03 22:15:15;;;;;;;8.40;3.90;;;15.30;99.90;;;;;;5076170;28;20549;-86
2022/07/03 22:17:45;;;;;;;10.07;3.53;;;15.50;99.90;;;;;;5094060;28;20085;-86
2022/07/03 22:22:56;;;;;;;8.88;3.97;;;15.20;99.90;;;;;;5372846;22;20047;-86
2022/07/03 22:36:04;;;;;;;10.73;4.68;;;15.40;99.90;;;;;;4970975;28;20728;-86
2022/07/03 22:43:06;;;;;;;9.57;4.80;;;14.70;99.90;;;;;;4971834;28;20110;-86
2022/07/03 22:52:32;;;;;;;10.02;4.97;;;14.80;99.90;;;;;;5108614;22;20055;-86
2022/07/03 22:58:34;;;;;;;10.00;4.63;;;14.70;99.90;;;;;;5254989;22;20396;-86
2022/07/03 23:08:11;;;;;;;9.82;5.30;;;14.30;99.90;;;;;;5102774;28;20104;-85
2022/07/03 23:10:37;;;;;;;11.15;5.85;;;14.50;99.90;;;;;;5080944;28;20060;-86
2022/07/03 23:27:35;;;;;;;10.10;5.28;;;14.30;99.90;;;;;;5297780;22;20062;-86
2022/07/03 23:59:02;;;;;;;10.98;5.70;;;13.60;99.90;;;;;;5547262;22;20023;-86
